createdAt,value
2018-11-25T00:00:29.594Z,16.33
2018-11-25T00:02:58.991Z,17.73
2018-11-25T00:05:28.398Z,14.53
2018-11-25T00:07:57.956Z,19.03
2018-11-25T00:10:27.486Z,15.07
2018-11-25T00:12:56.922Z,16.27
2018-11-25T00:15:26.286Z,16.20
2018-11-25T00:17:55.685Z,15.60
2018-11-25T00:20:24.970Z,14.20
2018-11-25T00:22:54.550Z,14.93
2018-11-25T00:25:23.835Z,15.10
2018-11-25T00:27:53.249Z,16.73
2018-11-25T00:30:22.517Z,14.03
2018-11-25T00:32:51.943Z,15.20
2018-11-25T00:35:21.307Z,14.80
2018-11-25T00:37:50.699Z,14.97
2018-11-25T00:40:20.148Z,14.60
2018-11-25T00:42:49.527Z,13.30
2018-11-25T00:45:20.259Z,15.93
2018-11-25T00:47:50.367Z,15.20
2018-11-25T00:50:19.726Z,14.67
2018-11-25T00:52:49.127Z,15.03
2018-11-25T00:55:18.873Z,16.57
2018-11-25T00:57:48.305Z,14.53
2018-11-25T01:00:21.545Z,14.37
2018-11-25T01:02:51.315Z,14.97
2018-11-25T01:05:20.736Z,13.53
2018-11-25T01:07:50.054Z,13.60
2018-11-25T01:10:19.440Z,14.10
2018-11-25T01:12:48.719Z,14.10
2018-11-25T01:15:18.492Z,12.47
2018-11-25T01:17:47.933Z,15.57
2018-11-25T01:20:19.441Z,14.07
2018-11-25T01:22:48.742Z,12.93
2018-11-25T01:25:18.154Z,12.47
2018-11-25T01:27:47.553Z,12.83
2018-11-25T01:30:17.618Z,14.50
2018-11-25T01:32:46.971Z,13.80
2018-11-25T01:35:16.372Z,16.23
2018-11-25T01:37:45.675Z,14.30
2018-11-25T01:40:17.956Z,12.87
2018-11-25T01:42:47.416Z,14.00
2018-11-25T01:45:17.695Z,12.77
2018-11-25T01:47:47.106Z,12.80
2018-11-25T01:50:18.490Z,12.33
2018-11-25T01:52:48.201Z,12.80
2018-11-25T01:55:19.297Z,12.90
2018-11-25T01:57:48.637Z,11.90
2018-11-25T02:00:20.016Z,15.70
2018-11-25T02:02:49.633Z,10.43
2018-11-25T02:05:19.061Z,13.50
2018-11-25T02:07:48.355Z,11.50
2018-11-25T02:10:18.848Z,11.10
2018-11-25T02:12:48.262Z,15.53
2018-11-25T02:15:18.162Z,14.27
2018-11-25T02:17:47.617Z,12.83
2018-11-25T02:20:22.979Z,12.47
2018-11-25T02:22:53.523Z,11.80
2018-11-25T02:25:22.867Z,14.40
2018-11-25T02:27:52.544Z,10.83
2018-11-25T02:30:21.838Z,13.07
2018-11-25T02:32:51.146Z,13.90
2018-11-25T02:35:20.494Z,11.67
2018-11-25T02:37:49.802Z,11.93
2018-11-25T02:40:19.055Z,11.97
2018-11-25T02:42:48.302Z,11.97
2018-11-25T02:45:18.679Z,10.13
2018-11-25T02:47:48.039Z,11.83
2018-11-25T02:50:26.906Z,11.60
2018-11-25T02:52:57.354Z,11.70
2018-11-25T02:55:27.217Z,11.03
2018-11-25T02:57:56.494Z,9.63
2018-11-25T03:00:25.890Z,10.37
2018-11-25T03:02:55.174Z,11.00
2018-11-25T03:05:24.597Z,10.60
2018-11-25T03:07:54.061Z,9.43
2018-11-25T03:10:23.345Z,10.73
2018-11-25T03:12:53.190Z,11.23
2018-11-25T03:15:22.534Z,10.30
2018-11-25T03:17:51.718Z,9.40
2018-11-25T03:20:21.043Z,11.27
2018-11-25T03:22:50.364Z,9.60
2018-11-25T03:25:22.101Z,10.30
2018-11-25T03:27:51.405Z,9.83
2018-11-25T03:30:21.671Z,10.40
2018-11-25T03:32:52.114Z,10.37
2018-11-25T03:35:21.563Z,9.00
2018-11-25T03:37:50.923Z,8.97
2018-11-25T03:40:20.726Z,10.63
2018-11-25T03:42:50.053Z,11.07
2018-11-25T03:45:20.343Z,9.70
2018-11-25T03:47:49.664Z,9.10
2018-11-25T03:50:19.072Z,8.53
2018-11-25T03:52:48.398Z,9.30
2018-11-25T03:55:18.215Z,9.90
2018-11-25T03:57:47.546Z,9.40
2018-11-25T04:00:20.832Z,10.80
2018-11-25T04:02:51.215Z,9.63
2018-11-25T04:05:20.614Z,9.73
2018-11-25T04:07:49.870Z,11.53
2018-11-25T04:10:19.839Z,9.17
2018-11-25T04:12:49.188Z,9.63
2018-11-25T04:15:19.527Z,9.90
2018-11-25T04:17:49.221Z,8.77
2018-11-25T04:20:19.622Z,9.57
2018-11-25T04:22:49.155Z,8.53
2018-11-25T04:25:18.548Z,8.93
2018-11-25T04:27:47.908Z,10.33
2018-11-25T04:30:20.630Z,8.73
2018-11-25T04:32:50.829Z,7.63
2018-11-25T04:35:20.082Z,9.10
2018-11-25T04:37:49.372Z,7.80
2018-11-25T04:40:19.217Z,10.07
2018-11-25T04:42:48.516Z,8.87
2018-11-25T04:45:18.519Z,8.27
2018-11-25T04:47:48.263Z,6.70
2018-11-25T04:50:18.581Z,9.97
2018-11-25T04:52:47.971Z,8.07
2018-11-25T04:55:17.436Z,7.80
2018-11-25T04:57:49.725Z,9.17
2018-11-25T05:00:19.382Z,8.80
2018-11-25T05:02:49.068Z,9.53
2018-11-25T05:05:18.473Z,9.67
2018-11-25T05:07:47.770Z,7.63
2018-11-25T05:10:18.745Z,7.63
2018-11-25T05:12:48.036Z,8.47
2018-11-25T05:15:18.416Z,7.50
2018-11-25T05:17:47.842Z,7.47
2018-11-25T05:20:17.770Z,7.53
2018-11-25T05:22:47.132Z,10.87
2018-11-25T05:25:19.038Z,8.63
2018-11-25T05:27:48.348Z,7.53
2018-11-25T05:30:19.636Z,7.53
2018-11-25T05:32:48.917Z,8.97
2018-11-25T05:35:19.170Z,10.83
2018-11-25T05:37:48.392Z,6.97
2018-11-25T05:40:17.885Z,8.87
2018-11-25T05:42:47.230Z,10.10
2018-11-25T05:45:18.376Z,6.83
2018-11-25T05:47:47.747Z,9.13
2018-11-25T05:50:18.814Z,8.90
2018-11-25T05:52:48.157Z,6.53
2018-11-25T05:55:17.640Z,7.70
2018-11-25T05:57:46.876Z,8.40
2018-11-25T06:00:20.357Z,7.30
2018-11-25T06:02:49.693Z,8.13
2018-11-25T06:05:19.074Z,8.87
2018-11-25T06:07:48.416Z,9.57
2018-11-25T06:10:17.839Z,9.10
2018-11-25T06:12:47.115Z,8.97
2018-11-25T06:15:16.448Z,9.00
2018-11-25T06:17:45.924Z,8.53
2018-11-25T06:20:16.930Z,8.87
2018-11-25T06:22:46.779Z,7.67
2018-11-25T06:25:18.886Z,7.43
2018-11-25T06:27:48.368Z,9.57
2018-11-25T06:30:20.304Z,7.83
2018-11-25T06:32:49.734Z,7.50
2018-11-25T06:35:20.056Z,7.57
2018-11-25T06:37:49.319Z,6.90
2018-11-25T06:40:19.437Z,8.60
2018-11-25T06:42:48.857Z,8.90
2018-11-25T06:45:22.580Z,7.77
2018-11-25T06:47:51.938Z,12.13
2018-11-25T06:50:21.400Z,18.10
2018-11-25T06:52:50.755Z,24.23
2018-11-25T06:55:20.129Z,20.27
2018-11-25T06:57:49.437Z,22.33
2018-11-25T07:00:19.961Z,19.10
2018-11-25T07:02:49.302Z,18.23
2018-11-25T07:05:18.755Z,20.80
2018-11-25T07:07:48.097Z,19.70
2018-11-25T07:10:20.203Z,18.50
2018-11-25T07:12:50.730Z,18.83
2018-11-25T07:15:20.210Z,18.67
2018-11-25T07:17:49.538Z,21.37
2018-11-25T07:20:19.589Z,18.70
2018-11-25T07:22:48.893Z,23.93
2018-11-25T07:25:21.086Z,18.00
2018-11-25T07:27:50.421Z,20.20
2018-11-25T07:30:22.613Z,18.93
2018-11-25T07:32:51.946Z,19.67
2018-11-25T07:35:21.432Z,21.53
2018-11-25T07:37:50.749Z,24.07
2018-11-25T07:40:21.026Z,20.13
2018-11-25T07:42:50.522Z,18.33
2018-11-25T07:45:30.015Z,18.07
2018-11-25T07:47:53.132Z,19.07
2018-11-25T07:50:22.477Z,17.70
2018-11-25T07:52:52.277Z,16.50
2018-11-25T07:55:23.541Z,21.47
2018-11-25T07:57:53.949Z,17.67
2018-11-25T08:00:24.174Z,20.57
2018-11-25T08:02:53.615Z,20.73
2018-11-25T08:05:24.131Z,21.13
2018-11-25T08:07:53.526Z,15.53
2018-11-25T08:10:22.778Z,16.80
2018-11-25T08:12:52.306Z,18.90
2018-11-25T08:15:21.581Z,18.23
2018-11-25T08:17:50.973Z,20.50
2018-11-25T08:20:21.949Z,18.17
2018-11-25T08:22:51.535Z,19.43
2018-11-25T08:25:22.635Z,22.07
2018-11-25T08:27:52.425Z,23.57
2018-11-25T08:30:22.667Z,23.10
2018-11-25T08:32:52.315Z,19.90
2018-11-25T08:35:21.697Z,19.30
2018-11-25T08:37:51.005Z,19.27
2018-11-25T08:40:22.470Z,18.53
2018-11-25T08:42:51.867Z,18.93
2018-11-25T08:45:21.281Z,18.83
2018-11-25T08:47:50.636Z,18.80
2018-11-25T08:50:20.462Z,14.37
2018-11-25T08:52:52.029Z,17.33
2018-11-25T08:55:24.172Z,19.00
2018-11-25T08:57:53.641Z,16.23
2018-11-25T09:00:23.839Z,16.03
2018-11-25T09:02:54.393Z,13.93
2018-11-25T09:05:23.730Z,13.60
2018-11-25T09:07:52.978Z,14.67
2018-11-25T09:10:22.793Z,16.77
2018-11-25T09:12:56.600Z,14.63
2018-11-25T09:15:25.769Z,14.10
2018-11-25T09:17:55.058Z,14.83
2018-11-25T09:20:24.377Z,16.73
2018-11-25T09:22:53.917Z,14.93
2018-11-25T09:25:25.433Z,14.07
2018-11-25T09:27:54.798Z,13.20
2018-11-25T09:30:26.049Z,15.87
2018-11-25T09:32:55.344Z,11.63
2018-11-25T09:35:24.992Z,12.13
2018-11-25T09:37:54.231Z,14.27
2018-11-25T09:40:25.546Z,14.03
2018-11-25T09:42:54.941Z,14.50
2018-11-25T09:45:24.226Z,17.10
2018-11-25T09:47:53.506Z,14.33
2018-11-25T09:50:23.634Z,14.43
2018-11-25T09:52:53.015Z,14.20
2018-11-25T09:55:25.233Z,12.47
2018-11-25T09:57:58.616Z,15.30
2018-11-25T10:00:33.893Z,14.03
2018-11-25T10:03:03.967Z,13.10
2018-11-25T10:05:33.400Z,14.10
2018-11-25T10:08:02.835Z,12.30
2018-11-25T10:10:32.099Z,12.77
2018-11-25T10:13:01.458Z,9.73
2018-11-25T10:15:31.225Z,11.37
2018-11-25T10:18:00.554Z,10.50
2018-11-25T10:20:31.207Z,11.63
2018-11-25T10:23:00.605Z,11.93
2018-11-25T10:25:29.958Z,11.50
2018-11-25T10:27:59.291Z,11.73
2018-11-25T10:30:29.726Z,10.17
2018-11-25T10:33:01.221Z,10.33
2018-11-25T10:35:30.550Z,10.63
2018-11-25T10:37:59.837Z,12.37
2018-11-25T10:40:29.274Z,10.60
2018-11-25T10:42:58.556Z,10.97
2018-11-25T10:45:28.542Z,10.77
2018-11-25T10:47:58.614Z,11.73
2018-11-25T10:50:28.137Z,14.23
2018-11-25T10:52:57.432Z,9.80
2018-11-25T10:55:26.789Z,9.53
2018-11-25T10:57:56.100Z,10.37
2018-11-25T11:00:34.835Z,9.90
2018-11-25T11:03:09.319Z,10.23
2018-11-25T11:05:43.743Z,12.30
2018-11-25T11:08:13.090Z,9.90
2018-11-25T11:10:42.337Z,11.93
2018-11-25T11:13:11.759Z,8.30
2018-11-25T11:15:41.151Z,10.07
2018-11-25T11:18:10.412Z,9.07
2018-11-25T11:20:39.691Z,8.07
2018-11-25T11:23:09.014Z,8.40
2018-11-25T11:25:38.287Z,9.20
2018-11-25T11:28:07.615Z,9.07
2018-11-25T11:30:36.915Z,7.80
2018-11-25T11:33:06.299Z,7.93
2018-11-25T11:35:35.550Z,8.53
2018-11-25T11:38:04.842Z,8.37
2018-11-25T11:40:34.171Z,8.00
2018-11-25T11:43:03.461Z,8.63
2018-11-25T11:45:32.793Z,8.10
2018-11-25T11:48:02.024Z,8.87
2018-11-25T11:50:31.229Z,9.57
2018-11-25T11:53:00.538Z,9.13
2018-11-25T11:55:30.770Z,9.33
2018-11-25T11:58:00.073Z,8.67
2018-11-25T12:00:30.793Z,9.57
2018-11-25T12:03:00.418Z,8.07
2018-11-25T12:05:29.757Z,8.93
2018-11-25T12:07:59.084Z,10.00
2018-11-25T12:10:28.377Z,9.43
2018-11-25T12:12:57.742Z,8.00
2018-11-25T12:15:30.848Z,8.63
2018-11-25T12:17:58.066Z,7.93
2018-11-25T12:20:28.551Z,8.87
2018-11-25T12:22:58.284Z,10.03
2018-11-25T12:25:27.582Z,7.50
2018-11-25T12:27:56.934Z,9.33
2018-11-25T12:30:26.174Z,7.17
2018-11-25T12:32:55.546Z,7.60
2018-11-25T12:35:24.850Z,8.93
2018-11-25T12:37:54.225Z,8.60
2018-11-25T12:40:23.991Z,8.77
2018-11-25T12:42:54.593Z,8.73
2018-11-25T12:45:24.205Z,7.67
2018-11-25T12:47:53.476Z,8.03
2018-11-25T12:50:24.028Z,8.30
2018-11-25T12:52:53.393Z,8.13
2018-11-25T12:55:23.877Z,7.90
2018-11-25T12:57:54.021Z,9.13
2018-11-25T13:00:29.867Z,8.30
2018-11-25T13:02:59.066Z,9.57
2018-11-25T13:05:28.456Z,8.70
2018-11-25T13:07:57.765Z,7.03
2018-11-25T13:10:27.069Z,8.47
2018-11-25T13:12:56.360Z,8.53
2018-11-25T13:15:25.614Z,8.87
2018-11-25T13:17:54.913Z,8.73
2018-11-25T13:20:24.277Z,8.13
2018-11-25T13:22:53.558Z,9.67
2018-11-25T13:25:22.840Z,9.47
2018-11-25T13:27:52.187Z,8.80
2018-11-25T13:30:26.298Z,9.53
2018-11-25T13:32:57.570Z,9.03
2018-11-25T13:35:28.013Z,7.63
2018-11-25T13:37:57.431Z,8.10
2018-11-25T13:40:26.704Z,9.80
2018-11-25T13:42:56.054Z,9.23
2018-11-25T13:45:25.363Z,8.93
2018-11-25T13:47:54.661Z,8.03
2018-11-25T13:50:24.050Z,8.93
2018-11-25T13:52:53.418Z,7.90
2018-11-25T13:55:25.124Z,9.03
2018-11-25T13:57:54.484Z,8.97
2018-11-25T14:00:59.885Z,8.00
2018-11-25T14:03:37.504Z,11.13
2018-11-25T14:06:10.762Z,10.43
2018-11-25T14:08:40.127Z,10.67
2018-11-25T14:11:11.291Z,11.40
2018-11-25T14:13:40.694Z,9.43
2018-11-25T14:16:12.634Z,12.00
2018-11-25T14:18:41.948Z,14.50
2018-11-25T14:21:11.217Z,11.67
2018-11-25T14:23:40.530Z,11.97
2018-11-25T14:26:18.936Z,11.80
2018-11-25T14:28:48.866Z,11.00
2018-11-25T14:31:18.268Z,14.57
2018-11-25T14:33:47.602Z,11.10
2018-11-25T14:36:16.919Z,9.30
2018-11-25T14:38:46.266Z,9.40
2018-11-25T14:41:15.557Z,11.27
2018-11-25T14:43:44.878Z,10.10
2018-11-25T14:46:14.135Z,9.87
2018-11-25T14:48:43.374Z,10.10
2018-11-25T14:51:12.641Z,9.93
2018-11-25T14:53:41.867Z,10.73
2018-11-25T14:56:11.104Z,9.43
2018-11-25T14:58:40.425Z,9.60
2018-11-25T15:01:09.820Z,9.00
2018-11-25T15:03:39.109Z,10.27
2018-11-25T15:06:08.465Z,10.30
2018-11-25T15:08:37.814Z,10.30
2018-11-25T15:11:07.165Z,9.87
2018-11-25T15:13:36.414Z,12.13
2018-11-25T15:16:08.167Z,10.33
2018-11-25T15:18:37.489Z,10.60
2018-11-25T15:21:07.655Z,8.87
2018-11-25T15:23:36.984Z,10.63
2018-11-25T15:26:07.312Z,11.10
2018-11-25T15:28:36.685Z,12.07
2018-11-25T15:31:06.319Z,12.03
2018-11-25T15:33:36.158Z,11.53
2018-11-25T15:36:05.735Z,10.67
2018-11-25T15:38:34.969Z,10.57
2018-11-25T15:41:04.352Z,11.47
2018-11-25T15:43:33.590Z,9.80
2018-11-25T15:46:02.814Z,9.57
2018-11-25T15:48:33.015Z,13.17
2018-11-25T15:51:02.412Z,14.87
2018-11-25T15:53:31.636Z,10.73
2018-11-25T15:56:03.193Z,10.40
2018-11-25T15:58:32.551Z,9.40
2018-11-25T16:01:01.847Z,11.37
2018-11-25T16:03:31.091Z,10.73
2018-11-25T16:06:17.280Z,10.33
2018-11-25T16:08:46.553Z,11.70
2018-11-25T16:11:15.871Z,10.23
2018-11-25T16:13:45.179Z,11.43
2018-11-25T16:16:14.461Z,10.53
2018-11-25T16:18:43.813Z,10.47
2018-11-25T16:21:13.112Z,10.73
2018-11-25T16:23:42.442Z,10.93
2018-11-25T16:26:16.593Z,11.77
2018-11-25T16:28:47.594Z,11.20
2018-11-25T16:31:17.016Z,10.03
2018-11-25T16:33:46.358Z,10.07
2018-11-25T16:36:15.869Z,11.37
2018-11-25T16:38:45.228Z,10.50
2018-11-25T16:41:14.596Z,9.67
2018-11-25T16:43:43.997Z,10.33
2018-11-25T16:46:13.275Z,10.07
2018-11-25T16:48:42.564Z,9.57
2018-11-25T16:51:11.877Z,9.87
2018-11-25T16:53:41.261Z,13.07
2018-11-25T16:56:10.594Z,11.40
2018-11-25T16:58:39.880Z,11.17
2018-11-25T17:01:10.183Z,11.07
2018-11-25T17:03:38.586Z,11.20
2018-11-25T17:06:08.758Z,12.50
2018-11-25T17:08:39.800Z,12.30
2018-11-25T17:11:09.587Z,11.97
2018-11-25T17:13:38.963Z,16.97
2018-11-25T17:16:08.828Z,11.63
2018-11-25T17:18:38.706Z,13.27
2018-11-25T17:21:08.133Z,12.73
2018-11-25T17:23:37.453Z,13.10
2018-11-25T17:26:06.966Z,14.80
2018-11-25T17:28:36.356Z,13.43
2018-11-25T17:31:05.596Z,13.33
2018-11-25T17:33:35.041Z,13.83
2018-11-25T17:36:04.412Z,14.17
2018-11-25T17:38:33.669Z,13.10
2018-11-25T17:41:03.031Z,11.57
2018-11-25T17:43:32.310Z,13.73
2018-11-25T17:46:01.696Z,13.03
2018-11-25T17:48:30.941Z,13.17
2018-11-25T17:51:00.233Z,14.63
2018-11-25T17:53:29.541Z,12.77
2018-11-25T17:55:58.930Z,12.37
2018-11-25T17:58:28.193Z,13.13
2018-11-25T18:01:00.193Z,16.73
2018-11-25T18:03:30.948Z,15.73
2018-11-25T18:06:00.347Z,15.23
2018-11-25T18:08:29.669Z,15.17
2018-11-25T18:10:59.038Z,14.47
2018-11-25T18:13:31.015Z,13.37
2018-11-25T18:16:01.860Z,12.70
2018-11-25T18:18:48.910Z,13.00
2018-11-25T18:21:20.110Z,13.87
2018-11-25T18:23:49.385Z,14.77
2018-11-25T18:26:18.916Z,15.50
2018-11-25T18:28:48.258Z,15.80
2018-11-25T18:31:17.566Z,16.87
2018-11-25T18:33:46.845Z,16.53
2018-11-25T18:36:16.094Z,17.53
2018-11-25T18:38:45.413Z,16.73
2018-11-25T18:41:14.791Z,20.93
2018-11-25T18:43:43.999Z,18.60
2018-11-25T18:46:13.359Z,17.40
2018-11-25T18:48:45.172Z,15.03
2018-11-25T18:51:14.563Z,15.87
2018-11-25T18:53:43.885Z,13.93
2018-11-25T18:56:13.237Z,14.97
2018-11-25T18:58:42.541Z,15.57
2018-11-25T19:01:28.059Z,14.30
2018-11-25T19:03:57.431Z,17.23
2018-11-25T19:06:26.679Z,14.03
2018-11-25T19:08:56.035Z,15.80
2018-11-25T19:11:25.306Z,14.80
2018-11-25T19:13:54.590Z,16.33
2018-11-25T19:16:24.128Z,17.73
2018-11-25T19:18:53.413Z,17.03
2018-11-25T19:21:22.736Z,17.50
2018-11-25T19:23:52.018Z,18.60
2018-11-25T19:26:21.288Z,21.33
2018-11-25T19:28:50.681Z,20.03
2018-11-25T19:31:20.109Z,19.70
2018-11-25T19:33:49.523Z,20.63
2018-11-25T19:36:18.836Z,22.37
2018-11-25T19:38:48.125Z,29.07
2018-11-25T19:41:17.381Z,33.53
2018-11-25T19:43:46.763Z,30.13
2018-11-25T19:46:16.131Z,28.93
2018-11-25T19:48:45.610Z,33.00
2018-11-25T19:51:17.618Z,37.23
2018-11-25T19:53:44.363Z,31.43
2018-11-25T19:56:13.737Z,32.17
2018-11-25T19:58:43.049Z,35.03
2018-11-25T20:01:12.427Z,29.07
2018-11-25T20:03:41.914Z,33.67
2018-11-25T20:06:11.237Z,30.90
2018-11-25T20:08:40.634Z,28.33
2018-11-25T20:11:10.034Z,28.07
2018-11-25T20:13:39.348Z,27.03
2018-11-25T20:16:13.821Z,24.67
2018-11-25T20:18:43.162Z,25.70
2018-11-25T20:21:17.680Z,24.17
2018-11-25T20:23:47.069Z,25.03
2018-11-25T20:26:16.375Z,23.60
2018-11-25T20:28:45.754Z,25.57
2018-11-25T20:31:15.164Z,22.77
2018-11-25T20:33:52.339Z,21.43
2018-11-25T20:36:20.618Z,24.17
2018-11-25T20:38:55.362Z,21.73
2018-11-25T20:41:24.738Z,24.10
2018-11-25T20:43:53.998Z,22.87
2018-11-25T20:46:28.500Z,24.57
2018-11-25T20:48:57.790Z,22.93
2018-11-25T20:51:32.274Z,20.90
2018-11-25T20:54:01.783Z,22.83
2018-11-25T20:56:31.213Z,23.30
2018-11-25T20:59:00.622Z,22.83
2018-11-25T21:01:30.123Z,21.47
2018-11-25T21:03:59.575Z,22.60
2018-11-25T21:06:29.241Z,23.00
2018-11-25T21:08:58.907Z,21.50
2018-11-25T21:11:28.441Z,23.37
2018-11-25T21:13:57.831Z,21.23
2018-11-25T21:16:27.111Z,21.53
2018-11-25T21:18:56.479Z,22.63
2018-11-25T21:21:25.803Z,21.30
2018-11-25T21:23:55.238Z,19.70
2018-11-25T21:26:24.521Z,19.87
2018-11-25T21:28:53.863Z,20.27
2018-11-25T21:31:23.481Z,21.33
2018-11-25T21:33:52.854Z,20.30
2018-11-25T21:36:22.138Z,20.60
2018-11-25T21:38:51.502Z,19.83
2018-11-25T21:41:21.001Z,21.93
2018-11-25T21:43:50.272Z,18.23
2018-11-25T21:46:19.643Z,19.93
2018-11-25T21:48:49.014Z,18.80
2018-11-25T21:51:18.418Z,19.67
2018-11-25T21:53:47.774Z,19.50
2018-11-25T21:56:17.089Z,20.33
2018-11-25T21:58:46.353Z,18.60
2018-11-25T22:01:15.689Z,20.80
2018-11-25T22:03:45.058Z,20.83
2018-11-25T22:06:14.389Z,19.60
2018-11-25T22:08:43.774Z,19.70
2018-11-25T22:11:13.051Z,19.37
2018-11-25T22:13:42.320Z,19.23
2018-11-25T22:16:11.678Z,18.27
2018-11-25T22:18:40.986Z,18.57
2018-11-25T22:21:10.278Z,17.53
2018-11-25T22:23:39.593Z,22.07
2018-11-25T22:26:08.893Z,21.53
2018-11-25T22:28:38.185Z,17.83
2018-11-25T22:31:07.950Z,22.17
2018-11-25T22:33:37.354Z,21.40
2018-11-25T22:36:06.878Z,25.70
2018-11-25T22:38:36.193Z,20.03
2018-11-25T22:41:05.726Z,20.33
2018-11-25T22:43:35.102Z,18.40
2018-11-25T22:46:04.458Z,19.50
2018-11-25T22:48:33.742Z,19.20
2018-11-25T22:51:03.031Z,20.30
2018-11-25T22:53:32.384Z,17.30
2018-11-25T22:56:01.625Z,15.60
2018-11-25T22:58:30.938Z,19.97
2018-11-25T23:01:00.300Z,16.53
2018-11-25T23:03:29.638Z,16.80
2018-11-25T23:06:09.907Z,19.40
2018-11-25T23:08:39.205Z,18.87
2018-11-25T23:11:08.473Z,15.80
2018-11-25T23:13:37.721Z,18.60
2018-11-25T23:16:07.182Z,16.03
2018-11-25T23:18:36.409Z,17.03
2018-11-25T23:21:05.674Z,16.87
2018-11-25T23:23:35.093Z,20.33
2018-11-25T23:26:04.350Z,17.40
2018-11-25T23:28:33.567Z,18.13
2018-11-25T23:31:02.942Z,15.80
2018-11-25T23:33:32.244Z,16.63
2018-11-25T23:36:01.550Z,14.23
2018-11-25T23:38:30.818Z,16.83
2018-11-25T23:41:00.201Z,18.37
2018-11-25T23:43:29.501Z,16.03
2018-11-25T23:45:58.729Z,14.27
2018-11-25T23:48:28.017Z,15.83
2018-11-25T23:50:57.298Z,15.07
2018-11-25T23:53:26.548Z,14.70
2018-11-25T23:55:55.818Z,17.10
2018-11-25T23:58:25.080Z,14.33
